Terminal Aerodrome Forecast
Issued by NWS

Home | Current Version | Previous Version | Text Only | Print | Product List | Glossary On
Versions: 1 2 3 4 5 6 7 8 9 10 11 12 13 14 15 16
059
FTUS46 KSEW 172321
TAFCLM
TAF
KCLM 172321Z 1800/1824 28012G20KT P6SM SCT100 SCT200
     FM180900 VRB04KT P6SM BKN100 OVC200
     FM181500 25007KT P6SM -RA BKN030 OVC060=

USA.gov is the U.S. government's official web portal to all federal, state and local government web resources and services.